Time;durP1;ratioP1;P1;durP2;ratioP2;P2;SDS_P1;SDS_P2;PMS_P1;PMS_P2;Temp;Humidity;BMP_temperature;BMP_pressure;BME280_temperature;BME280_humidity;BME280_pressure;Samples;Min_cycle;Max_cycle;Signal;HPM_P1;HPM_P2
2021/07/30 00:01:51;;;;;;;6.87;6.67;;;24.60;95.70;;;;;;3531188;40;20503;-54
2021/07/30 00:04:18;;;;;;;7.10;6.90;;;24.60;95.70;;;;;;3531936;40;20612;-58
2021/07/30 00:06:45;;;;;;;7.30;7.10;;;24.60;95.70;;;;;;3531319;40;20479;-58
2021/07/30 00:09:14;;;;;;;7.30;7.10;;;24.60;95.70;;;;;;3530993;40;20821;-59
2021/07/30 00:11:42;;;;;;;7.27;7.07;;;24.60;95.70;;;;;;3531417;40;20478;-58
2021/07/30 00:14:09;;;;;;;7.83;7.60;;;24.60;95.70;;;;;;3531766;40;20471;-58
2021/07/30 00:16:39;;;;;;;7.80;7.60;;;24.60;95.70;;;;;;3531478;40;20467;-57
2021/07/30 00:19:06;;;;;;;7.20;7.00;;;24.60;96.00;;;;;;3521761;40;20856;-59
2021/07/30 00:21:33;;;;;;;7.10;6.90;;;24.60;95.70;;;;;;3531198;40;20700;-57
2021/07/30 00:24:01;;;;;;;7.30;7.10;;;24.60;95.70;;;;;;3531630;40;20554;-58
2021/07/30 00:26:30;;;;;;;7.20;7.00;;;24.60;95.70;;;;;;3531266;40;20781;-59
2021/07/30 00:29:00;;;;;;;7.20;7.00;;;24.60;95.70;;;;;;3531598;40;20471;-56
2021/07/30 00:31:28;;;;;;;7.23;7.03;;;24.60;95.70;;;;;;3531545;40;20479;-57
2021/07/30 00:34:00;;;;;;;6.90;6.70;;;24.60;95.70;;;;;;3531915;40;20459;-58
2021/07/30 00:36:27;;;;;;;6.70;6.50;;;24.60;95.70;;;;;;3522299;40;20549;-59
2021/07/30 00:38:55;;;;;;;6.73;6.53;;;24.60;95.60;;;;;;3533544;40;20624;-54
2021/07/30 00:41:22;;;;;;;6.60;6.40;;;24.60;95.60;;;;;;3533388;40;20490;-58
2021/07/30 00:43:50;;;;;;;7.13;6.93;;;24.60;95.70;;;;;;3532281;40;20713;-58
2021/07/30 00:46:19;;;;;;;6.50;6.30;;;24.60;96.00;;;;;;3531308;40;20945;-59
2021/07/30 00:48:46;;;;;;;6.80;6.60;;;24.60;95.70;;;;;;3533357;40;20529;-57
2021/07/30 00:51:15;;;;;;;6.70;6.50;;;24.60;95.60;;;;;;3533274;40;20559;-58
2021/07/30 00:53:42;;;;;;;7.00;6.80;;;24.60;95.70;;;;;;3533584;40;20478;-58
2021/07/30 00:56:10;;;;;;;7.00;6.80;;;24.60;95.70;;;;;;3533238;40;20474;-58
2021/07/30 00:58:37;;;;;;;6.73;6.53;;;24.60;95.60;;;;;;3532902;40;20509;-57
2021/07/30 01:01:07;;;;;;;7.40;7.20;;;24.60;95.60;;;;;;3533567;40;21015;-58
2021/07/30 01:03:38;;;;;;;7.20;7.00;;;24.60;95.70;;;;;;3533290;40;21119;-57
2021/07/30 01:06:06;;;;;;;7.53;7.33;;;24.60;95.70;;;;;;3524507;40;20498;-56
2021/07/30 01:08:33;;;;;;;7.20;7.00;;;24.60;95.70;;;;;;3522949;40;20525;-56
2021/07/30 01:11:00;;;;;;;7.00;6.80;;;24.60;95.70;;;;;;3532538;40;20521;-58
2021/07/30 01:13:27;;;;;;;6.73;6.53;;;24.60;95.60;;;;;;3533700;40;20594;-57
2021/07/30 01:16:00;;;;;;;7.37;7.17;;;24.60;95.70;;;;;;3533255;40;20473;-57
2021/07/30 01:18:28;;;;;;;7.10;6.90;;;24.60;95.70;;;;;;3532596;40;20506;-57
2021/07/30 01:21:07;;;;;;;7.03;6.83;;;24.60;95.70;;;;;;3530479;40;20554;-59
2021/07/30 01:23:36;;;;;;;7.03;6.83;;;24.60;95.70;;;;;;3531697;40;20521;-57
2021/07/30 01:26:03;;;;;;;7.10;6.90;;;24.60;95.60;;;;;;3532168;40;20530;-59
2021/07/30 01:28:31;;;;;;;7.30;7.10;;;24.60;95.60;;;;;;3532915;40;20951;-57
2021/07/30 01:30:59;;;;;;;7.20;7.00;;;24.60;95.60;;;;;;3523644;40;20550;-58
2021/07/30 01:33:26;;;;;;;7.00;6.80;;;24.60;95.60;;;;;;3532048;40;20450;-57
2021/07/30 01:35:53;;;;;;;7.10;6.90;;;24.60;95.70;;;;;;3533935;40;20795;-58
2021/07/30 01:38:21;;;;;;;7.50;7.30;;;24.60;95.60;;;;;;3532481;40;20466;-58
2021/07/30 01:40:49;;;;;;;7.20;7.00;;;24.60;95.60;;;;;;3532408;40;20470;-57
2021/07/30 01:43:16;;;;;;;7.20;7.00;;;24.60;96.00;;;;;;3532864;40;20519;-58
2021/07/30 01:45:44;;;;;;;7.50;7.30;;;24.60;95.70;;;;;;3533696;40;20711;-59
2021/07/30 01:48:11;;;;;;;7.50;7.30;;;24.60;95.60;;;;;;3532467;40;21016;-56
2021/07/30 01:50:38;;;;;;;7.20;7.00;;;24.60;95.60;;;;;;3531671;40;20475;-58
2021/07/30 01:53:05;;;;;;;7.23;7.03;;;24.60;95.60;;;;;;3532686;40;21101;-57
2021/07/30 01:55:32;;;;;;;7.10;6.90;;;24.60;95.60;;;;;;3532015;40;20486;-58
2021/07/30 01:58:01;;;;;;;7.10;6.90;;;24.60;95.60;;;;;;3532307;40;20825;-57
2021/07/30 02:00:28;;;;;;;7.17;6.97;;;24.60;95.60;;;;;;3531829;40;20467;-58
2021/07/30 02:02:55;;;;;;;7.03;6.83;;;24.60;95.70;;;;;;3533000;40;20482;-58
2021/07/30 02:05:23;;;;;;;7.53;7.33;;;24.60;95.60;;;;;;3532454;40;20462;-59
2021/07/30 02:07:50;;;;;;;7.27;7.07;;;24.60;95.60;;;;;;3530867;40;20506;-58
2021/07/30 02:10:18;;;;;;;7.20;7.00;;;24.60;95.60;;;;;;3531667;40;20674;-54
2021/07/30 02:15:31;;;;;;;7.17;6.97;;;24.60;95.60;;;;;;3532705;40;20774;-58
2021/07/30 02:17:59;;;;;;;7.50;7.30;;;24.60;95.60;;;;;;3531929;40;20514;-57
2021/07/30 02:20:26;;;;;;;7.40;7.20;;;24.60;95.60;;;;;;3531471;40;20455;-55
2021/07/30 02:22:53;;;;;;;7.40;7.20;;;24.60;95.60;;;;;;3521707;40;20463;-56
2021/07/30 02:25:20;;;;;;;7.23;7.03;;;24.60;95.60;;;;;;3531493;40;20491;-56
2021/07/30 02:27:47;;;;;;;8.03;7.80;;;24.50;95.60;;;;;;3531266;40;20883;-58
2021/07/30 02:30:15;;;;;;;7.23;7.03;;;24.60;95.60;;;;;;3532182;40;20811;-57
2021/07/30 02:32:43;;;;;;;7.60;7.40;;;24.60;95.70;;;;;;3532228;40;20541;-59
2021/07/30 02:35:11;;;;;;;7.40;7.20;;;24.60;95.60;;;;;;3531525;40;20463;-58
2021/07/30 02:37:38;;;;;;;7.40;7.20;;;24.60;95.60;;;;;;3531583;40;20479;-56
2021/07/30 02:40:07;;;;;;;7.50;7.30;;;24.60;95.60;;;;;;3532114;40;20658;-58
2021/07/30 02:42:34;;;;;;;7.20;7.00;;;24.60;95.60;;;;;;3530837;40;20473;-57
2021/07/30 02:45:01;;;;;;;7.30;7.10;;;24.60;95.60;;;;;;3531130;40;20837;-57
2021/07/30 02:47:29;;;;;;;7.60;7.40;;;24.60;95.60;;;;;;3530970;40;20823;-57
2021/07/30 02:49:57;;;;;;;7.70;7.50;;;24.60;95.60;;;;;;3530695;40;21049;-57
2021/07/30 02:52:24;;;;;;;7.73;7.53;;;24.60;95.60;;;;;;3531581;40;20495;-58
2021/07/30 02:54:52;;;;;;;7.40;7.20;;;24.60;95.60;;;;;;3531268;40;20471;-57
2021/07/30 02:57:19;;;;;;;7.90;7.70;;;24.60;95.60;;;;;;3531108;40;20515;-56
2021/07/30 02:59:46;;;;;;;8.00;7.80;;;24.60;95.60;;;;;;3531570;40;20466;-55
2021/07/30 03:02:13;;;;;;;7.70;7.50;;;24.60;95.90;;;;;;3532381;40;20850;-58
2021/07/30 03:04:41;;;;;;;7.60;7.40;;;24.60;95.60;;;;;;3531626;40;20474;-58
2021/07/30 03:07:09;;;;;;;7.73;7.53;;;24.60;95.60;;;;;;3530767;40;20497;-58
2021/07/30 03:09:37;;;;;;;7.50;7.30;;;24.60;95.60;;;;;;3530946;40;20495;-57
2021/07/30 03:12:05;;;;;;;7.83;7.63;;;24.60;95.60;;;;;;3530933;40;20502;-57
2021/07/30 03:14:32;;;;;;;7.90;7.70;;;24.60;95.90;;;;;;3531138;40;20481;-55
2021/07/30 03:16:59;;;;;;;7.53;7.33;;;24.60;95.60;;;;;;3532271;40;20514;-58
2021/07/30 03:19:26;;;;;;;7.40;7.20;;;24.60;95.60;;;;;;3523142;40;20459;-57
2021/07/30 03:21:53;;;;;;;7.90;7.70;;;24.50;95.60;;;;;;3530693;40;20625;-57
2021/07/30 03:24:22;;;;;;;7.90;7.70;;;24.50;95.60;;;;;;3531024;40;20482;-58
2021/07/30 03:26:49;;;;;;;8.00;7.80;;;24.50;95.60;;;;;;3530635;40;20649;-57
2021/07/30 03:29:16;;;;;;;7.90;7.70;;;24.60;95.60;;;;;;3530755;40;20467;-58
2021/07/30 03:31:47;;;;;;;7.77;7.57;;;24.50;95.60;;;;;;3529038;40;20627;-58
2021/07/30 03:34:14;;;;;;;7.87;7.67;;;24.50;95.60;;;;;;3531081;40;20462;-57
2021/07/30 03:36:42;;;;;;;8.67;8.37;;;24.60;95.60;;;;;;3530839;40;21013;-58
2021/07/30 03:39:09;;;;;;;8.60;8.40;;;24.50;95.50;;;;;;3531089;40;20469;-58
2021/07/30 03:41:38;;;;;;;8.57;8.37;;;24.50;95.50;;;;;;3531384;40;20474;-57
2021/07/30 03:44:06;;;;;;;8.30;8.10;;;24.50;95.50;;;;;;3521553;40;20533;-58
2021/07/30 03:46:33;;;;;;;8.10;7.90;;;24.60;95.60;;;;;;3531247;40;20685;-54
2021/07/30 03:49:00;;;;;;;7.60;7.40;;;24.60;95.60;;;;;;3530963;40;20771;-57
2021/07/30 03:51:27;;;;;;;7.80;7.60;;;24.50;95.50;;;;;;3531153;40;20483;-57
2021/07/30 03:53:54;;;;;;;8.30;8.10;;;24.50;95.90;;;;;;3531258;40;20742;-58
2021/07/30 03:56:22;;;;;;;7.70;7.50;;;24.50;95.50;;;;;;3530043;40;20482;-56
2021/07/30 03:58:50;;;;;;;7.70;7.50;;;24.50;95.50;;;;;;3520651;40;20821;-59
2021/07/30 04:01:18;;;;;;;8.73;8.53;;;24.50;95.60;;;;;;3529905;40;20575;-59
2021/07/30 04:03:45;;;;;;;9.20;8.90;;;24.50;95.50;;;;;;3529584;40;20473;-58
2021/07/30 04:06:12;;;;;;;8.67;8.47;;;24.50;95.90;;;;;;3530297;40;20676;-55
2021/07/30 04:08:40;;;;;;;9.40;9.10;;;24.50;95.50;;;;;;3529341;40;20489;-58
2021/07/30 04:11:07;;;;;;;8.60;8.40;;;24.50;95.60;;;;;;3528344;40;20482;-56
2021/07/30 04:13:34;;;;;;;9.30;9.00;;;24.50;95.50;;;;;;3528623;40;20658;-58
2021/07/30 04:16:04;;;;;;;9.00;8.80;;;24.50;95.50;;;;;;3530463;40;20497;-58
2021/07/30 04:18:31;;;;;;;9.30;9.10;;;24.50;95.50;;;;;;3529796;40;20904;-57
2021/07/30 04:20:58;;;;;;;9.23;9.03;;;24.50;95.50;;;;;;3529259;40;20741;-58
2021/07/30 04:23:26;;;;;;;9.20;8.93;;;24.50;95.50;;;;;;3529113;40;20551;-59
2021/07/30 04:25:54;;;;;;;8.53;8.33;;;24.50;95.50;;;;;;3530799;40;20811;-57
2021/07/30 04:28:21;;;;;;;9.10;8.90;;;24.50;95.50;;;;;;3530229;40;20502;-57
2021/07/30 04:30:48;;;;;;;9.57;9.27;;;24.50;95.50;;;;;;3529943;40;20479;-55
2021/07/30 04:33:17;;;;;;;9.33;9.03;;;24.50;95.50;;;;;;3528066;40;20838;-59
2021/07/30 04:35:44;;;;;;;9.93;9.63;;;24.50;95.60;;;;;;3527530;40;20693;-56
2021/07/30 04:38:11;;;;;;;9.93;9.63;;;24.50;95.50;;;;;;3527533;40;20471;-58
2021/07/30 04:40:40;;;;;;;9.23;8.97;;;24.50;95.50;;;;;;3520319;40;20504;-58
2021/07/30 04:43:07;;;;;;;9.07;8.87;;;24.50;95.50;;;;;;3527506;40;20787;-56
2021/07/30 04:45:35;;;;;;;9.10;8.80;;;24.50;95.50;;;;;;3527670;40;21069;-58
2021/07/30 04:48:02;;;;;;;8.07;7.87;;;24.50;95.50;;;;;;3527578;40;20581;-58
2021/07/30 04:50:31;;;;;;;8.10;7.90;;;24.50;95.50;;;;;;3527188;40;20625;-57
2021/07/30 04:52:58;;;;;;;8.10;7.90;;;24.50;95.50;;;;;;3525682;40;20454;-54
2021/07/30 04:55:26;;;;;;;8.53;8.30;;;24.50;95.50;;;;;;3527137;40;20517;-57
2021/07/30 04:57:54;;;;;;;8.20;8.00;;;24.50;95.50;;;;;;3526615;40;20467;-57
2021/07/30 05:00:22;;;;;;;7.93;7.73;;;24.50;95.50;;;;;;3517250;40;20764;-59
2021/07/30 05:02:52;;;;;;;7.63;7.43;;;24.50;95.50;;;;;;3525556;40;20542;-58
2021/07/30 05:05:19;;;;;;;8.00;7.80;;;24.50;95.50;;;;;;3525632;40;20563;-58
2021/07/30 05:07:47;;;;;;;7.73;7.53;;;24.60;95.50;;;;;;3526170;40;20605;-58
2021/07/30 05:10:15;;;;;;;8.10;7.90;;;24.60;95.60;;;;;;3527053;40;20467;-58
2021/07/30 05:12:42;;;;;;;8.20;8.00;;;24.60;95.50;;;;;;3526299;40;20816;-58
2021/07/30 05:15:10;;;;;;;8.03;7.83;;;24.60;95.50;;;;;;3524739;40;20613;-59
2021/07/30 05:17:37;;;;;;;8.20;8.00;;;24.60;95.50;;;;;;3523087;40;20731;-58
2021/07/30 05:20:05;;;;;;;8.10;7.90;;;24.60;95.50;;;;;;3524324;40;20711;-57
2021/07/30 05:22:33;;;;;;;8.23;8.03;;;24.60;95.50;;;;;;3522790;40;20546;-56
2021/07/30 05:25:01;;;;;;;8.63;8.43;;;24.50;95.50;;;;;;3521495;40;20459;-59
2021/07/30 05:27:28;;;;;;;8.10;7.90;;;24.60;95.50;;;;;;3523613;40;20470;-56
2021/07/30 05:29:58;;;;;;;8.03;7.83;;;24.60;95.50;;;;;;3525941;40;20744;-59
2021/07/30 05:32:25;;;;;;;8.13;7.93;;;24.60;95.50;;;;;;3526583;40;20555;-57
2021/07/30 05:34:56;;;;;;;8.43;8.13;;;24.60;95.50;;;;;;3525495;40;20470;-59
2021/07/30 05:37:23;;;;;;;8.80;8.60;;;24.50;95.50;;;;;;3526154;40;20487;-57
2021/07/30 05:39:51;;;;;;;8.20;8.00;;;24.60;95.50;;;;;;3524785;40;20519;-59
2021/07/30 05:42:19;;;;;;;8.27;8.03;;;24.60;95.50;;;;;;3526093;40;20466;-57
2021/07/30 05:44:46;;;;;;;8.20;8.00;;;24.60;95.50;;;;;;3526793;40;20781;-57
2021/07/30 05:47:14;;;;;;;8.03;7.83;;;24.60;95.50;;;;;;3524968;40;20470;-59
2021/07/30 05:49:41;;;;;;;8.40;8.20;;;24.60;95.60;;;;;;3525528;40;20561;-58
2021/07/30 05:52:08;;;;;;;8.90;8.60;;;24.60;95.50;;;;;;3525181;40;20708;-56
2021/07/30 05:54:35;;;;;;;8.33;8.13;;;24.60;95.50;;;;;;3523812;40;20763;-58
2021/07/30 05:57:03;;;;;;;8.20;8.00;;;24.60;95.50;;;;;;3522891;40;20882;-58
2021/07/30 05:59:31;;;;;;;8.50;8.30;;;24.60;95.50;;;;;;3519453;40;20482;-58
2021/07/30 06:01:58;;;;;;;8.37;8.17;;;24.60;95.60;;;;;;3519591;40;20469;-59
2021/07/30 06:04:26;;;;;;;8.80;8.60;;;24.60;95.50;;;;;;3519417;40;20716;-59
2021/07/30 06:06:53;;;;;;;8.70;8.50;;;24.60;95.50;;;;;;3518867;40;20483;-59
2021/07/30 06:09:20;;;;;;;8.87;8.67;;;24.60;95.50;;;;;;3517748;40;21181;-57
2021/07/30 06:11:47;;;;;;;9.07;8.80;;;24.60;95.50;;;;;;3519000;40;20454;-58
2021/07/30 06:14:14;;;;;;;9.30;9.00;;;24.60;95.50;;;;;;3519243;40;20568;-57
2021/07/30 06:16:43;;;;;;;9.20;8.90;;;24.60;95.50;;;;;;3516260;40;20728;-59
2021/07/30 06:19:10;;;;;;;9.17;8.87;;;24.60;95.50;;;;;;3519853;40;20459;-57
2021/07/30 06:21:37;;;;;;;9.37;9.07;;;24.60;95.50;;;;;;3518557;40;20888;-59
2021/07/30 06:24:05;;;;;;;9.03;8.73;;;24.60;95.60;;;;;;3517160;40;20487;-57
2021/07/30 06:26:32;;;;;;;9.30;9.00;;;24.60;95.60;;;;;;3517527;40;20588;-60
2021/07/30 06:28:59;;;;;;;9.00;8.80;;;24.60;95.50;;;;;;3518637;40;20511;-57
2021/07/30 06:31:26;;;;;;;8.53;8.33;;;24.60;95.50;;;;;;3517283;40;20490;-58
2021/07/30 06:33:55;;;;;;;9.10;8.87;;;24.60;95.60;;;;;;3516132;40;21060;-58
2021/07/30 06:36:22;;;;;;;8.70;8.50;;;24.60;95.60;;;;;;3515977;40;20673;-58
2021/07/30 06:38:49;;;;;;;9.20;8.90;;;24.60;95.50;;;;;;3516255;40;20486;-58
2021/07/30 06:41:17;;;;;;;9.63;9.33;;;24.60;95.60;;;;;;3519046;40;20567;-58
2021/07/30 06:43:44;;;;;;;9.50;9.20;;;24.60;95.50;;;;;;3520689;40;20478;-58
2021/07/30 06:46:12;;;;;;;9.47;9.17;;;24.60;95.50;;;;;;3520297;40;20497;-57
2021/07/30 06:48:39;;;;;;;9.57;9.27;;;24.60;95.50;;;;;;3522706;40;20603;-59
2021/07/30 06:51:10;;;;;;;9.70;9.40;;;24.60;95.50;;;;;;3520707;40;20451;-59
2021/07/30 06:53:38;;;;;;;9.70;9.40;;;24.60;95.60;;;;;;3521235;40;20498;-57
2021/07/30 06:56:10;;;;;;;9.63;9.33;;;24.60;95.50;;;;;;3523129;40;20470;-59
2021/07/30 06:58:37;;;;;;;9.60;9.30;;;24.60;95.50;;;;;;3520445;40;20450;-58
2021/07/30 07:01:04;;;;;;;9.60;9.30;;;24.60;95.50;;;;;;3519786;40;20454;-58
2021/07/30 07:03:31;;;;;;;8.80;8.60;;;24.60;95.50;;;;;;3521048;40;20467;-59
2021/07/30 07:05:59;;;;;;;9.23;8.93;;;24.60;95.50;;;;;;3518618;40;20481;-58
2021/07/30 07:08:28;;;;;;;9.47;9.17;;;24.60;95.50;;;;;;3522437;40;20486;-59
2021/07/30 07:10:56;;;;;;;9.67;9.37;;;24.60;95.50;;;;;;3520840;40;20454;-59
2021/07/30 07:13:23;;;;;;;9.40;9.10;;;24.70;95.60;;;;;;3518276;40;20466;-59
2021/07/30 07:15:50;;;;;;;9.50;9.20;;;24.60;95.50;;;;;;3519852;40;20466;-59
2021/07/30 07:18:17;;;;;;;9.53;9.23;;;24.70;95.60;;;;;;3521664;40;20998;-58
2021/07/30 07:20:46;;;;;;;10.00;9.70;;;24.70;95.60;;;;;;3521315;40;20459;-58
2021/07/30 07:23:15;;;;;;;9.80;9.50;;;24.70;95.60;;;;;;3516064;40;20479;-58
2021/07/30 07:25:43;;;;;;;9.83;9.53;;;24.70;95.60;;;;;;3520373;40;20462;-59
2021/07/30 07:28:10;;;;;;;9.80;9.50;;;24.70;95.60;;;;;;3522449;40;20892;-59
2021/07/30 07:30:37;;;;;;;9.80;9.50;;;24.70;95.60;;;;;;3522102;40;20473;-58
2021/07/30 07:33:05;;;;;;;10.07;9.77;;;24.70;95.60;;;;;;3521052;40;20490;-58
2021/07/30 07:35:32;;;;;;;10.47;10.17;;;24.70;95.60;;;;;;3518373;40;20545;-58
2021/07/30 07:38:02;;;;;;;10.40;10.10;;;24.70;95.60;;;;;;3520524;40;20463;-59
2021/07/30 07:40:30;;;;;;;10.23;9.93;;;24.70;95.60;;;;;;3520048;40;20458;-58
2021/07/30 07:43:00;;;;;;;9.70;9.43;;;24.70;95.60;;;;;;3520215;40;20447;-58
2021/07/30 07:45:27;;;;;;;9.70;9.40;;;24.70;95.60;;;;;;3521095;40;20466;-58
2021/07/30 07:47:55;;;;;;;9.73;9.43;;;24.70;95.60;;;;;;3521251;40;20474;-59
2021/07/30 07:50:22;;;;;;;9.30;9.00;;;24.70;95.60;;;;;;3524264;40;20615;-58
2021/07/30 07:52:58;;;;;;;9.50;9.20;;;24.70;95.60;;;;;;3521241;40;20470;-59
2021/07/30 07:55:25;;;;;;;9.60;9.30;;;24.70;95.60;;;;;;3522297;40;20961;-58
2021/07/30 07:57:53;;;;;;;9.47;9.17;;;24.70;95.60;;;;;;3521066;40;20466;-59
2021/07/30 08:00:21;;;;;;;9.17;8.90;;;24.70;95.60;;;;;;3520238;40;20793;-58
2021/07/30 08:02:48;;;;;;;9.77;9.47;;;24.70;95.60;;;;;;3522042;40;20462;-59
2021/07/30 08:05:16;;;;;;;9.57;9.27;;;24.70;95.60;;;;;;3522073;40;20451;-59
2021/07/30 08:07:43;;;;;;;10.13;9.83;;;24.70;95.60;;;;;;3510693;40;20967;-58
2021/07/30 08:10:11;;;;;;;10.10;9.80;;;24.70;95.60;;;;;;3518176;40;20447;-59
2021/07/30 08:12:38;;;;;;;10.13;9.83;;;24.70;95.60;;;;;;3521010;40;20504;-58
2021/07/30 08:15:07;;;;;;;10.40;10.10;;;24.70;95.60;;;;;;3513250;40;20468;-56
2021/07/30 08:17:37;;;;;;;10.10;9.80;;;24.70;95.60;;;;;;3520472;40;20797;-57
2021/07/30 08:20:04;;;;;;;10.10;9.80;;;24.70;95.70;;;;;;3521094;40;20530;-59
2021/07/30 08:22:32;;;;;;;10.63;10.33;;;24.70;95.60;;;;;;3523953;40;20485;-58
2021/07/30 08:24:59;;;;;;;10.83;10.53;;;24.70;95.60;;;;;;3519497;40;20494;-59
2021/07/30 08:27:26;;;;;;;10.27;9.97;;;24.70;95.70;;;;;;3518154;40;20481;-59
2021/07/30 08:29:53;;;;;;;10.70;10.40;;;24.70;95.70;;;;;;3520031;40;20458;-58
2021/07/30 08:32:21;;;;;;;10.90;10.60;;;24.70;95.70;;;;;;3531214;40;20498;-59
2021/07/30 08:34:54;;;;;;;10.70;10.40;;;24.60;95.60;;;;;;3523137;40;20482;-59
2021/07/30 08:37:21;;;;;;;10.47;10.17;;;24.70;95.70;;;;;;3516752;40;20506;-59
2021/07/30 08:39:49;;;;;;;9.93;9.63;;;24.60;95.60;;;;;;3519976;40;20457;-59
2021/07/30 08:42:17;;;;;;;9.93;9.63;;;24.70;95.70;;;;;;3519672;40;20921;-59
2021/07/30 08:44:44;;;;;;;10.10;9.80;;;24.60;95.60;;;;;;3515494;40;20524;-58
2021/07/30 08:47:14;;;;;;;10.13;9.83;;;24.70;95.70;;;;;;3513640;40;20527;-59
2021/07/30 08:49:41;;;;;;;10.33;10.03;;;24.70;95.70;;;;;;3516366;40;20477;-61
2021/07/30 08:52:12;;;;;;;10.13;9.83;;;24.70;95.70;;;;;;3516044;40;20941;-59
2021/07/30 08:54:40;;;;;;;10.43;10.13;;;24.60;95.60;;;;;;3503922;40;20713;-59
2021/07/30 08:57:09;;;;;;;10.70;10.40;;;24.60;95.60;;;;;;3515457;40;20537;-58
2021/07/30 08:59:39;;;;;;;9.93;9.63;;;24.70;95.70;;;;;;3504814;40;21255;-59
2021/07/30 09:02:06;;;;;;;10.50;10.20;;;24.70;95.70;;;;;;3514995;40;20466;-58
2021/07/30 09:04:33;;;;;;;10.50;10.20;;;24.70;95.70;;;;;;3514155;40;20708;-57
2021/07/30 09:07:03;;;;;;;10.40;10.10;;;24.60;95.60;;;;;;3515235;40;20560;-58
2021/07/30 09:09:33;;;;;;;10.47;10.17;;;24.70;95.70;;;;;;3516020;40;20763;-59
2021/07/30 09:12:01;;;;;;;10.23;9.93;;;24.70;95.70;;;;;;3519030;40;20762;-58
2021/07/30 09:14:34;;;;;;;10.70;10.40;;;24.60;95.60;;;;;;3516033;40;20661;-59
2021/07/30 09:17:01;;;;;;;10.70;10.40;;;24.70;95.70;;;;;;3522373;40;20475;-58
2021/07/30 09:19:28;;;;;;;10.37;10.07;;;24.60;95.60;;;;;;3515568;40;20819;-58
2021/07/30 09:22:06;;;;;;;9.60;9.30;;;24.60;95.60;;;;;;3515140;40;20908;-58
2021/07/30 09:24:39;;;;;;;9.87;9.57;;;24.60;95.60;;;;;;3516644;40;20817;-59
2021/07/30 09:27:08;;;;;;;9.50;9.20;;;24.60;95.70;;;;;;3514526;40;21265;-59
2021/07/30 09:29:36;;;;;;;9.63;9.33;;;24.60;95.60;;;;;;3515141;40;20471;-58
2021/07/30 09:32:05;;;;;;;9.73;9.43;;;24.60;95.60;;;;;;3514062;40;20930;-58
2021/07/30 09:34:35;;;;;;;10.00;9.70;;;24.70;95.70;;;;;;3516201;40;20547;-58
2021/07/30 09:37:03;;;;;;;9.87;9.57;;;24.60;95.70;;;;;;3515448;40;20746;-58
2021/07/30 09:39:40;;;;;;;9.43;9.17;;;24.60;95.60;;;;;;3518259;40;20584;-57
2021/07/30 09:42:09;;;;;;;9.87;9.57;;;24.70;95.70;;;;;;3513484;40;20728;-58
2021/07/30 09:44:46;;;;;;;10.07;9.77;;;24.60;95.60;;;;;;3515557;40;20668;-59
2021/07/30 09:47:16;;;;;;;9.60;9.37;;;24.60;95.70;;;;;;3515984;40;20686;-59
2021/07/30 09:49:50;;;;;;;9.03;8.83;;;24.70;95.70;;;;;;3517871;40;20550;-58
2021/07/30 09:52:18;;;;;;;10.00;9.70;;;24.60;95.70;;;;;;3514251;40;20568;-54
2021/07/30 09:54:58;;;;;;;10.37;10.07;;;24.60;95.60;;;;;;3518488;40;20497;-57
2021/07/30 09:57:27;;;;;;;10.20;9.90;;;24.60;95.70;;;;;;3517451;40;20763;-54
2021/07/30 09:59:57;;;;;;;10.57;10.27;;;24.60;95.70;;;;;;3517483;40;20537;-55
2021/07/30 10:02:27;;;;;;;10.73;10.43;;;24.60;95.70;;;;;;3517384;40;20488;-56
2021/07/30 10:04:55;;;;;;;10.10;9.80;;;24.60;95.60;;;;;;3516617;40;20473;-54
2021/07/30 10:07:24;;;;;;;10.50;10.20;;;24.60;95.70;;;;;;3516283;40;21150;-57
2021/07/30 10:09:58;;;;;;;10.17;9.87;;;24.70;95.70;;;;;;3517669;40;20570;-58
2021/07/30 10:12:27;;;;;;;9.87;9.57;;;24.60;95.70;;;;;;3515701;40;20550;-53
2021/07/30 10:14:54;;;;;;;9.33;9.10;;;24.70;95.70;;;;;;3520151;40;20564;-57
2021/07/30 10:17:28;;;;;;;9.70;9.40;;;24.60;95.70;;;;;;3518622;40;20573;-54
2021/07/30 10:19:57;;;;;;;10.10;9.80;;;24.60;95.70;;;;;;3518110;40;20614;-55
2021/07/30 10:22:26;;;;;;;9.00;8.80;;;24.60;95.60;;;;;;3519024;40;20474;-57
2021/07/30 10:24:56;;;;;;;9.80;9.50;;;24.70;95.70;;;;;;3519237;40;20873;-55
2021/07/30 10:27:27;;;;;;;9.50;9.20;;;24.60;95.70;;;;;;3518118;40;20923;-54
2021/07/30 10:30:02;;;;;;;9.33;9.07;;;24.60;95.70;;;;;;3516624;40;20573;-57
2021/07/30 10:32:54;;;;;;;9.00;8.80;;;24.70;95.70;;;;;;3516592;40;20833;-55
2021/07/30 10:35:46;;;;;;;9.70;9.40;;;24.70;95.70;;;;;;3515130;40;20470;-55
2021/07/30 10:38:16;;;;;;;9.93;9.63;;;24.60;95.70;;;;;;3510477;40;20772;-54
2021/07/30 10:40:45;;;;;;;10.00;9.70;;;24.60;95.60;;;;;;3517471;40;20481;-55
2021/07/30 10:43:15;;;;;;;9.57;9.27;;;24.60;95.60;;;;;;3519592;40;20466;-57
2021/07/30 10:45:43;;;;;;;9.67;9.37;;;24.60;95.70;;;;;;3518210;40;20837;-54
2021/07/30 10:48:34;;;;;;;9.93;9.63;;;24.60;95.70;;;;;;3519170;40;20894;-56
2021/07/30 10:51:04;;;;;;;9.20;8.90;;;24.60;95.70;;;;;;3517043;40;20458;-54
2021/07/30 10:53:51;;;;;;;9.67;9.37;;;24.70;95.70;;;;;;3519776;40;20832;-57
2021/07/30 10:56:49;;;;;;;9.40;9.10;;;24.60;95.70;;;;;;3518503;40;20466;-57
2021/07/30 10:59:20;;;;;;;9.27;8.97;;;24.60;95.70;;;;;;3519839;40;20559;-54
2021/07/30 11:02:01;;;;;;;9.20;8.90;;;24.60;95.70;;;;;;3520345;40;21017;-57
2021/07/30 11:04:30;;;;;;;8.80;8.60;;;24.70;95.70;;;;;;3516574;40;21096;-57
2021/07/30 11:06:58;;;;;;;9.00;8.80;;;24.60;95.70;;;;;;3515761;40;20484;-55
2021/07/30 11:09:37;;;;;;;9.40;9.10;;;24.60;95.70;;;;;;3519245;40;21057;-53
2021/07/30 11:12:07;;;;;;;9.57;9.27;;;24.70;95.70;;;;;;3521750;40;20469;-56
2021/07/30 11:14:37;;;;;;;9.33;9.03;;;24.70;95.70;;;;;;3520357;40;20490;-56
2021/07/30 11:17:06;;;;;;;9.10;8.80;;;24.70;95.70;;;;;;3520012;40;20930;-56
2021/07/30 11:19:35;;;;;;;9.20;8.90;;;24.60;95.70;;;;;;3518349;40;20693;-57
2021/07/30 11:22:05;;;;;;;9.50;9.20;;;24.60;95.70;;;;;;3519250;40;20471;-57
2021/07/30 11:24:36;;;;;;;8.90;8.70;;;24.60;95.70;;;;;;3521026;40;20486;-55
2021/07/30 11:27:04;;;;;;;8.83;8.63;;;24.60;95.70;;;;;;3521254;40;20534;-57
2021/07/30 11:29:31;;;;;;;8.80;8.60;;;24.70;95.70;;;;;;3521132;40;20517;-58
2021/07/30 11:32:03;;;;;;;9.80;9.50;;;24.60;95.70;;;;;;3522556;40;20465;-57
2021/07/30 11:34:32;;;;;;;9.13;8.93;;;24.60;95.70;;;;;;3522443;40;20477;-54
2021/07/30 11:37:00;;;;;;;9.00;8.80;;;24.70;95.70;;;;;;3522001;40;20742;-56
2021/07/30 11:39:33;;;;;;;9.50;9.20;;;24.70;95.70;;;;;;3521925;40;20479;-57
2021/07/30 11:42:00;;;;;;;9.00;8.80;;;24.70;95.70;;;;;;3519746;40;20497;-55
2021/07/30 11:44:27;;;;;;;9.30;9.00;;;24.70;95.70;;;;;;3519846;40;20844;-57
2021/07/30 11:46:57;;;;;;;9.43;9.13;;;24.70;95.70;;;;;;3519688;40;20502;-56
2021/07/30 11:49:31;;;;;;;9.13;8.90;;;24.70;95.70;;;;;;3518865;40;20494;-57
2021/07/30 11:52:00;;;;;;;9.30;9.00;;;24.70;95.70;;;;;;3520245;40;20466;-58
2021/07/30 11:54:28;;;;;;;9.43;9.13;;;24.70;95.70;;;;;;3520674;40;20911;-56
2021/07/30 11:56:56;;;;;;;9.20;9.00;;;24.70;95.70;;;;;;3519911;40;20703;-57
2021/07/30 11:59:23;;;;;;;9.20;8.90;;;24.70;95.70;;;;;;3521719;40;20520;-53
2021/07/30 12:02:01;;;;;;;9.40;9.20;;;24.70;95.70;;;;;;3521625;40;20800;-53
2021/07/30 12:04:31;;;;;;;9.00;8.70;;;24.70;95.70;;;;;;3520849;40;20479;-56
2021/07/30 12:07:03;;;;;;;9.13;8.87;;;24.70;95.70;;;;;;3511098;40;20857;-54
2021/07/30 12:09:32;;;;;;;9.30;9.00;;;24.70;95.70;;;;;;3521241;40;20697;-54
2021/07/30 12:12:02;;;;;;;8.97;8.67;;;24.60;95.70;;;;;;3520102;40;20509;-56
2021/07/30 12:14:31;;;;;;;9.20;8.90;;;24.70;95.70;;;;;;3510084;40;20463;-55
2021/07/30 12:16:59;;;;;;;9.20;8.90;;;24.70;95.70;;;;;;3519290;40;20486;-57
2021/07/30 12:19:32;;;;;;;9.00;8.80;;;24.70;95.70;;;;;;3521127;40;20466;-54
2021/07/30 12:22:00;;;;;;;8.90;8.70;;;24.70;95.70;;;;;;3521770;40;20866;-54
2021/07/30 12:24:28;;;;;;;9.17;8.97;;;24.70;95.70;;;;;;3521599;40;20662;-53
2021/07/30 12:26:56;;;;;;;9.47;9.17;;;24.70;95.80;;;;;;3524136;40;20489;-53
2021/07/30 12:29:42;;;;;;;8.90;8.70;;;24.70;95.70;;;;;;3522044;40;20759;-54
2021/07/30 12:32:18;;;;;;;8.70;8.50;;;24.70;95.80;;;;;;3513607;40;21084;-53
2021/07/30 12:34:59;;;;;;;8.90;8.70;;;24.70;95.70;;;;;;3523635;40;20888;-53
2021/07/30 12:37:28;;;;;;;9.03;8.77;;;24.70;95.80;;;;;;3524179;40;20566;-57
2021/07/30 12:39:57;;;;;;;9.93;9.63;;;24.70;95.70;;;;;;3524442;40;21193;-53
2021/07/30 12:42:26;;;;;;;8.73;8.53;;;24.70;95.70;;;;;;3524862;40;20978;-56
2021/07/30 12:45:07;;;;;;;8.87;8.57;;;24.70;95.70;;;;;;3525902;40;20482;-54
2021/07/30 12:47:37;;;;;;;8.40;8.20;;;24.70;95.80;;;;;;3522300;40;20851;-56
2021/07/30 12:50:24;;;;;;;9.00;8.80;;;24.70;95.70;;;;;;3523962;40;20759;-54
2021/07/30 12:53:09;;;;;;;9.10;8.80;;;24.70;95.80;;;;;;3526005;40;20622;-56
2021/07/30 12:56:06;;;;;;;8.97;8.67;;;24.70;95.80;;;;;;3525200;40;20550;-53
2021/07/30 12:58:35;;;;;;;8.70;8.50;;;24.70;95.70;;;;;;3524742;40;21234;-56